Time;durP1;ratioP1;P1;durP2;ratioP2;P2;SDS_P1;SDS_P2;PMS_P1;PMS_P2;Temp;Humidity;BMP_temperature;BMP_pressure;BME280_temperature;BME280_humidity;BME280_pressure;Samples;Min_cycle;Max_cycle;Signal;HPM_P1;HPM_P2
2023/12/06 00:01:29;;;;;;;64.32;33.40;;;;;;;;;;5054302;28;20142;-75
2023/12/06 00:03:55;;;;;;;66.47;33.17;;;;;;;;;;5061042;28;20013;-75
2023/12/06 00:06:21;;;;;;;63.47;32.78;;;;;;;;;;5060324;28;20012;-75
2023/12/06 00:08:48;;;;;;;61.72;31.73;;;;;;;;;;5060435;28;20021;-75
2023/12/06 00:11:14;;;;;;;61.20;31.17;;;;;;;;;;5064439;28;20017;-75
2023/12/06 00:13:40;;;;;;;58.58;31.38;;;;;;;;;;5064269;28;20074;-75
2023/12/06 00:16:06;;;;;;;61.65;30.58;;;;;;;;;;5062165;28;20013;-75
2023/12/06 00:18:32;;;;;;;62.05;30.75;;;;;;;;;;5065670;28;20113;-75
2023/12/06 00:20:58;;;;;;;56.63;29.88;;;;;;;;;;5059651;28;20484;-75
2023/12/06 00:23:24;;;;;;;56.90;30.25;;;;;;;;;;5059350;28;20040;-75
2023/12/06 00:25:50;;;;;;;52.08;28.48;;;;;;;;;;5071079;28;20377;-75
2023/12/06 00:28:17;;;;;;;51.38;28.80;;;;;;;;;;5061176;28;20486;-75
2023/12/06 00:30:43;;;;;;;56.35;29.40;;;;;;;;;;5062523;28;20004;-75
2023/12/06 00:33:09;;;;;;;55.85;29.58;;;;;;;;;;5067208;28;20051;-75
2023/12/06 00:35:35;;;;;;;47.83;27.75;;;;;;;;;;5065580;28;20503;-75
2023/12/06 00:38:01;;;;;;;47.92;26.58;;;;;;;;;;5061399;28;20013;-75
2023/12/06 00:40:27;;;;;;;50.47;25.58;;;;;;;;;;5064921;28;20017;-75
2023/12/06 00:42:55;;;;;;;48.05;26.60;;;;;;;;;;5062056;28;20016;-75
2023/12/06 00:45:22;;;;;;;47.90;25.15;;;;;;;;;;5053049;28;20024;-75
2023/12/06 00:47:47;;;;;;;46.63;24.83;;;;;;;;;;5063763;28;20005;-75
2023/12/06 00:50:14;;;;;;;45.03;24.85;;;;;;;;;;5064878;28;20372;-75
2023/12/06 00:52:40;;;;;;;43.65;24.77;;;;;;;;;;5068675;28;20090;-75
2023/12/06 00:55:06;;;;;;;48.03;25.52;;;;;;;;;;5061717;28;20036;-75
2023/12/06 00:57:33;;;;;;;46.40;25.38;;;;;;;;;;5056959;28;20016;-75
2023/12/06 00:59:59;;;;;;;47.22;25.77;;;;;;;;;;5058967;28;20029;-75
2023/12/06 01:02:26;;;;;;;48.33;26.08;;;;;;;;;;5064577;28;20021;-75
2023/12/06 01:04:52;;;;;;;47.78;25.95;;;;;;;;;;5071762;28;20017;-75
2023/12/06 01:07:18;;;;;;;47.83;24.98;;;;;;;;;;5062132;28;20028;-75
2023/12/06 01:09:45;;;;;;;49.25;26.25;;;;;;;;;;5063429;28;20489;-75
2023/12/06 01:12:11;;;;;;;48.95;25.42;;;;;;;;;;5064657;28;20023;-75
2023/12/06 01:14:37;;;;;;;44.45;23.77;;;;;;;;;;5054747;28;20024;-75
2023/12/06 01:17:03;;;;;;;46.63;23.95;;;;;;;;;;5055462;28;20025;-76
2023/12/06 01:19:29;;;;;;;46.92;24.95;;;;;;;;;;5061780;28;20016;-75
2023/12/06 01:21:55;;;;;;;37.30;21.58;;;;;;;;;;5065337;28;20028;-75
2023/12/06 01:24:21;;;;;;;36.92;21.27;;;;;;;;;;5063671;28;20016;-75
2023/12/06 01:26:47;;;;;;;39.50;20.95;;;;;;;;;;5070609;28;20017;-76
2023/12/06 01:29:13;;;;;;;36.58;20.33;;;;;;;;;;5059948;28;20362;-75
2023/12/06 01:31:39;;;;;;;33.13;17.92;;;;;;;;;;5053110;28;20021;-75
2023/12/06 01:34:05;;;;;;;28.67;17.35;;;;;;;;;;5059494;28;20021;-75
2023/12/06 01:36:32;;;;;;;28.23;16.55;;;;;;;;;;5063991;28;20012;-75
2023/12/06 01:38:58;;;;;;;30.95;17.00;;;;;;;;;;5052022;28;20090;-75
2023/12/06 01:41:24;;;;;;;24.85;14.00;;;;;;;;;;5070326;28;20557;-75
2023/12/06 01:43:50;;;;;;;24.27;13.35;;;;;;;;;;5059843;28;20566;-75
2023/12/06 01:46:16;;;;;;;27.05;14.40;;;;;;;;;;5058059;28;20013;-75
2023/12/06 01:48:45;;;;;;;25.23;14.73;;;;;;;;;;5058654;28;20008;-75
2023/12/06 01:51:12;;;;;;;25.25;15.27;;;;;;;;;;5060187;28;20107;-76
2023/12/06 01:53:39;;;;;;;28.85;15.90;;;;;;;;;;5053998;28;20013;-75
2023/12/06 01:56:06;;;;;;;23.42;13.88;;;;;;;;;;5069045;28;20028;-75
2023/12/06 01:58:33;;;;;;;27.42;14.48;;;;;;;;;;5063657;28;20516;-75
2023/12/06 02:00:59;;;;;;;26.60;15.88;;;;;;;;;;5067720;28;20035;-75
2023/12/06 02:03:25;;;;;;;25.15;15.20;;;;;;;;;;5059305;28;20126;-75
2023/12/06 02:05:52;;;;;;;27.15;16.30;;;;;;;;;;5065748;28;20051;-75
2023/12/06 02:08:18;;;;;;;25.38;14.75;;;;;;;;;;5061677;28;20131;-75
2023/12/06 02:10:44;;;;;;;23.50;14.57;;;;;;;;;;5061928;28;20012;-75
2023/12/06 02:13:11;;;;;;;26.25;15.50;;;;;;;;;;5060791;28;20429;-76
2023/12/06 02:15:37;;;;;;;28.92;16.58;;;;;;;;;;5059646;28;20016;-75
2023/12/06 02:18:03;;;;;;;28.30;16.13;;;;;;;;;;5054296;28;20062;-75
2023/12/06 02:20:30;;;;;;;25.63;15.82;;;;;;;;;;5061828;28;20059;-75
2023/12/06 02:22:57;;;;;;;29.92;17.35;;;;;;;;;;5061981;28;20017;-75
2023/12/06 02:25:24;;;;;;;27.15;17.50;;;;;;;;;;5054518;28;20154;-75
2023/12/06 02:27:50;;;;;;;28.67;18.02;;;;;;;;;;5059261;28;20016;-75
2023/12/06 02:30:16;;;;;;;28.23;17.30;;;;;;;;;;5058053;28;20016;-75
2023/12/06 02:32:42;;;;;;;28.00;17.38;;;;;;;;;;5060346;28;20130;-75
2023/12/06 02:35:15;;;;;;;27.65;16.95;;;;;;;;;;5060292;28;20040;-75
2023/12/06 02:37:41;;;;;;;31.00;17.15;;;;;;;;;;5065224;28;20009;-76
2023/12/06 02:40:09;;;;;;;28.77;17.35;;;;;;;;;;5061426;28;20012;-75
2023/12/06 02:42:36;;;;;;;30.40;17.80;;;;;;;;;;5058411;28;20016;-76
2023/12/06 02:45:02;;;;;;;32.08;18.52;;;;;;;;;;5058761;28;20014;-75
2023/12/06 02:47:28;;;;;;;30.83;17.70;;;;;;;;;;5055514;28;20009;-75
2023/12/06 02:49:54;;;;;;;33.25;18.13;;;;;;;;;;5064176;28;20020;-75
2023/12/06 02:52:20;;;;;;;34.75;18.95;;;;;;;;;;5057878;28;20023;-76
2023/12/06 02:54:46;;;;;;;37.88;20.30;;;;;;;;;;5048208;28;20402;-75
2023/12/06 02:57:12;;;;;;;30.95;20.63;;;;;;;;;;5061471;28;20381;-75
2023/12/06 02:59:38;;;;;;;30.45;19.30;;;;;;;;;;5055650;28;20016;-75
2023/12/06 03:02:05;;;;;;;32.67;19.65;;;;;;;;;;5054289;28;20033;-76
2023/12/06 03:04:31;;;;;;;31.90;19.58;;;;;;;;;;5064883;28;20058;-76
2023/12/06 03:06:57;;;;;;;33.65;20.48;;;;;;;;;;5058634;28;20012;-76
2023/12/06 03:09:23;;;;;;;33.70;19.63;;;;;;;;;;5052445;28;20040;-76
2023/12/06 03:11:49;;;;;;;32.45;19.88;;;;;;;;;;5056332;28;20055;-75
2023/12/06 03:14:15;;;;;;;35.40;20.30;;;;;;;;;;5061297;28;20652;-76
2023/12/06 03:16:41;;;;;;;32.85;18.98;;;;;;;;;;5062577;28;20013;-76
2023/12/06 03:19:07;;;;;;;35.38;19.40;;;;;;;;;;5057933;28;20031;-76
2023/12/06 03:21:33;;;;;;;33.28;18.88;;;;;;;;;;5062771;28;20229;-76
2023/12/06 03:23:59;;;;;;;36.28;20.45;;;;;;;;;;5065318;28;20477;-76
2023/12/06 03:26:25;;;;;;;38.72;19.95;;;;;;;;;;5057587;28;20016;-76
2023/12/06 03:28:51;;;;;;;35.45;20.38;;;;;;;;;;5057968;28;20492;-76
2023/12/06 03:31:17;;;;;;;35.10;19.58;;;;;;;;;;5057922;28;20020;-76
2023/12/06 03:33:43;;;;;;;33.47;19.63;;;;;;;;;;5066485;28;20403;-76
2023/12/06 03:36:13;;;;;;;30.40;19.17;;;;;;;;;;5066429;28;20488;-75
2023/12/06 03:38:39;;;;;;;35.30;19.48;;;;;;;;;;5050636;28;20052;-76
2023/12/06 03:41:05;;;;;;;33.72;18.80;;;;;;;;;;5061377;28;20437;-76
2023/12/06 03:43:31;;;;;;;33.90;19.23;;;;;;;;;;5060302;28;20017;-76
2023/12/06 03:45:57;;;;;;;30.10;18.27;;;;;;;;;;5060267;28;20013;-76
2023/12/06 03:48:23;;;;;;;28.63;18.27;;;;;;;;;;5056155;28;20073;-75
2023/12/06 03:50:49;;;;;;;32.13;18.98;;;;;;;;;;5062944;28;20020;-76
2023/12/06 03:53:15;;;;;;;34.42;20.40;;;;;;;;;;5063165;28;20013;-76
2023/12/06 03:55:41;;;;;;;32.60;19.13;;;;;;;;;;5056284;28;20389;-76
2023/12/06 03:58:07;;;;;;;33.95;20.10;;;;;;;;;;5053843;28;20048;-76
2023/12/06 04:00:33;;;;;;;30.52;18.10;;;;;;;;;;5060822;28;20056;-76
2023/12/06 04:02:59;;;;;;;31.33;18.05;;;;;;;;;;5065879;28;20044;-76
2023/12/06 04:05:25;;;;;;;29.45;17.20;;;;;;;;;;5059445;28;20051;-76
2023/12/06 04:07:51;;;;;;;29.50;17.23;;;;;;;;;;5064181;28;20422;-76
2023/12/06 04:10:17;;;;;;;26.35;17.02;;;;;;;;;;5068753;28;20087;-76
2023/12/06 04:12:43;;;;;;;28.50;17.60;;;;;;;;;;5052539;28;20032;-76
2023/12/06 04:15:11;;;;;;;27.08;16.00;;;;;;;;;;5054145;28;20008;-76
2023/12/06 04:17:37;;;;;;;26.63;15.27;;;;;;;;;;5063935;28;20025;-75
2023/12/06 04:20:06;;;;;;;26.83;15.73;;;;;;;;;;5067683;28;20050;-76
2023/12/06 04:22:32;;;;;;;23.30;14.45;;;;;;;;;;5056012;28;20021;-76
2023/12/06 04:24:58;;;;;;;21.42;14.00;;;;;;;;;;5055032;28;20013;-76
2023/12/06 04:27:24;;;;;;;21.38;14.07;;;;;;;;;;5067550;28;20024;-76
2023/12/06 04:29:50;;;;;;;21.10;13.35;;;;;;;;;;5051442;28;20499;-76
2023/12/06 04:32:16;;;;;;;22.50;13.30;;;;;;;;;;5062258;28;20021;-76
2023/12/06 04:34:53;;;;;;;21.10;13.40;;;;;;;;;;5053576;28;20031;-76
2023/12/06 04:37:19;;;;;;;17.20;10.75;;;;;;;;;;5067029;28;20039;-76
2023/12/06 04:39:45;;;;;;;22.20;11.95;;;;;;;;;;5053119;28;20704;-76
2023/12/06 04:42:11;;;;;;;23.13;11.85;;;;;;;;;;5064049;28;20031;-75
2023/12/06 04:44:38;;;;;;;16.88;10.93;;;;;;;;;;5064790;28;20025;-76
2023/12/06 04:47:04;;;;;;;18.10;11.10;;;;;;;;;;5056069;28;20013;-76
2023/12/06 04:49:30;;;;;;;28.80;9.77;;;;;;;;;;5066641;28;20027;-76
2023/12/06 04:51:56;;;;;;;19.52;12.05;;;;;;;;;;5061622;28;20009;-75
2023/12/06 04:54:24;;;;;;;14.85;10.73;;;;;;;;;;5058378;28;20021;-76
2023/12/06 04:56:50;;;;;;;17.92;11.50;;;;;;;;;;5060555;28;20005;-76
2023/12/06 04:59:16;;;;;;;17.35;9.88;;;;;;;;;;5057767;28;20476;-76
2023/12/06 05:01:43;;;;;;;21.52;10.88;;;;;;;;;;5054051;28;20108;-76
2023/12/06 05:04:09;;;;;;;21.05;11.75;;;;;;;;;;5063133;28;20484;-76
2023/12/06 05:06:35;;;;;;;20.42;11.85;;;;;;;;;;5071297;28;20020;-76
2023/12/06 05:09:01;;;;;;;17.83;11.48;;;;;;;;;;5062823;28;20063;-76
2023/12/06 05:11:27;;;;;;;15.57;10.55;;;;;;;;;;5051234;28;20030;-76
2023/12/06 05:13:53;;;;;;;16.83;10.90;;;;;;;;;;5071360;28;20024;-76
2023/12/06 05:16:19;;;;;;;15.00;8.85;;;;;;;;;;5055535;28;20017;-75
2023/12/06 05:18:45;;;;;;;13.77;9.52;;;;;;;;;;5070228;28;20025;-75
2023/12/06 05:21:11;;;;;;;16.38;11.15;;;;;;;;;;5057839;28;20021;-76
2023/12/06 05:23:37;;;;;;;14.50;9.55;;;;;;;;;;5060887;28;20071;-76
2023/12/06 05:26:04;;;;;;;13.40;9.73;;;;;;;;;;5059460;28;20017;-75
2023/12/06 05:28:30;;;;;;;14.82;9.63;;;;;;;;;;5067830;28;20013;-76
2023/12/06 05:30:56;;;;;;;16.48;11.38;;;;;;;;;;5060921;28;20012;-76
2023/12/06 05:33:22;;;;;;;17.23;10.32;;;;;;;;;;5065655;28;20494;-76
2023/12/06 05:35:48;;;;;;;15.98;9.82;;;;;;;;;;5054750;28;20371;-75
2023/12/06 05:38:14;;;;;;;15.48;9.98;;;;;;;;;;5057650;28;20017;-76
2023/12/06 05:40:40;;;;;;;14.73;10.68;;;;;;;;;;5062550;28;20012;-76
2023/12/06 05:43:07;;;;;;;16.13;11.10;;;;;;;;;;5055014;28;20051;-76
2023/12/06 05:45:33;;;;;;;19.45;11.35;;;;;;;;;;5061971;28;20408;-76
2023/12/06 05:47:59;;;;;;;18.83;10.52;;;;;;;;;;5056702;28;20108;-76
2023/12/06 05:50:25;;;;;;;15.93;9.60;;;;;;;;;;5057084;28;20020;-75
2023/12/06 05:52:52;;;;;;;17.20;11.23;;;;;;;;;;5057924;28;20480;-75
2023/12/06 05:55:18;;;;;;;18.08;11.27;;;;;;;;;;5060769;28;20047;-76
2023/12/06 05:57:44;;;;;;;17.45;10.75;;;;;;;;;;5061697;28;21402;-76
2023/12/06 06:00:12;;;;;;;16.67;11.27;;;;;;;;;;5057853;28;20066;-75
2023/12/06 06:02:39;;;;;;;23.15;11.75;;;;;;;;;;5054870;28;20220;-76
2023/12/06 06:05:05;;;;;;;21.58;12.27;;;;;;;;;;5059676;28;20013;-76
2023/12/06 06:07:32;;;;;;;20.38;12.40;;;;;;;;;;5063246;28;20426;-77
2023/12/06 06:09:58;;;;;;;22.02;12.38;;;;;;;;;;5058448;28;20013;-81
2023/12/06 06:12:24;;;;;;;17.88;12.60;;;;;;;;;;5045862;28;20018;-75
2023/12/06 06:14:50;;;;;;;19.65;12.13;;;;;;;;;;5054763;28;20568;-76
2023/12/06 06:17:16;;;;;;;19.00;11.90;;;;;;;;;;5053393;28;21629;-75
2023/12/06 06:19:42;;;;;;;22.50;12.35;;;;;;;;;;5052549;28;20053;-76
2023/12/06 06:22:08;;;;;;;21.98;13.05;;;;;;;;;;5051344;28;20480;-76
2023/12/06 06:24:34;;;;;;;20.25;12.75;;;;;;;;;;5051892;28;20048;-75
2023/12/06 06:27:02;;;;;;;21.75;13.77;;;;;;;;;;5052479;28;20009;-76
2023/12/06 06:29:28;;;;;;;18.73;12.95;;;;;;;;;;5051662;28;20055;-76
2023/12/06 06:31:54;;;;;;;21.70;13.52;;;;;;;;;;5051522;28;20236;-76
2023/12/06 06:34:20;;;;;;;20.98;13.77;;;;;;;;;;5051787;28;20066;-76
2023/12/06 06:36:46;;;;;;;24.48;13.18;;;;;;;;;;5051284;28;20020;-76
2023/12/06 06:39:12;;;;;;;24.00;13.95;;;;;;;;;;5066725;28;20016;-75
2023/12/06 06:41:39;;;;;;;20.05;13.82;;;;;;;;;;5063040;28;20092;-75
2023/12/06 06:44:05;;;;;;;22.58;13.93;;;;;;;;;;5068616;28;20016;-76
2023/12/06 06:46:31;;;;;;;23.52;14.02;;;;;;;;;;5069044;28;20127;-76
2023/12/06 06:48:57;;;;;;;22.48;14.55;;;;;;;;;;5062845;28;20021;-76
2023/12/06 06:51:33;;;;;;;20.33;13.95;;;;;;;;;;5049063;28;20055;-76
2023/12/06 06:53:59;;;;;;;21.67;14.13;;;;;;;;;;5052368;28;20029;-76
2023/12/06 06:56:25;;;;;;;23.08;14.52;;;;;;;;;;5049101;28;20482;-76
2023/12/06 06:58:51;;;;;;;24.05;15.70;;;;;;;;;;5055066;28;20147;-76
2023/12/06 07:01:18;;;;;;;24.15;15.02;;;;;;;;;;5062951;28;20108;-77
2023/12/06 07:03:44;;;;;;;22.10;14.52;;;;;;;;;;5065927;28;20057;-76
2023/12/06 07:06:10;;;;;;;24.00;14.07;;;;;;;;;;5048623;28;20037;-76
2023/12/06 07:08:36;;;;;;;27.73;15.48;;;;;;;;;;5053366;28;20016;-76
2023/12/06 07:11:04;;;;;;;22.20;14.18;;;;;;;;;;5049969;28;20017;-75
2023/12/06 07:13:31;;;;;;;23.73;13.90;;;;;;;;;;5047857;28;20336;-75
2023/12/06 07:15:58;;;;;;;24.83;14.75;;;;;;;;;;5063018;28;20017;-75
2023/12/06 07:18:24;;;;;;;20.48;13.95;;;;;;;;;;5067998;28;20100;-74
2023/12/06 07:20:50;;;;;;;23.52;14.10;;;;;;;;;;5055237;28;20017;-76
2023/12/06 07:23:16;;;;;;;18.90;13.50;;;;;;;;;;5048758;28;20006;-75
2023/12/06 07:25:42;;;;;;;21.30;14.40;;;;;;;;;;5067136;28;20009;-76
2023/12/06 07:28:08;;;;;;;23.38;14.57;;;;;;;;;;5069461;28;20091;-75
2023/12/06 07:30:34;;;;;;;21.65;14.45;;;;;;;;;;5067503;28;20116;-75
2023/12/06 07:33:00;;;;;;;22.65;14.52;;;;;;;;;;5055852;28;20139;-75
2023/12/06 07:35:26;;;;;;;21.77;14.18;;;;;;;;;;5062714;28;20524;-75
2023/12/06 07:37:52;;;;;;;21.58;14.93;;;;;;;;;;5062127;28;20522;-75
2023/12/06 07:40:18;;;;;;;23.13;15.05;;;;;;;;;;5049541;28;20021;-75
2023/12/06 07:42:44;;;;;;;22.40;14.52;;;;;;;;;;5041200;28;20053;-76
2023/12/06 07:45:11;;;;;;;24.00;14.95;;;;;;;;;;5060174;28;20005;-75
2023/12/06 07:47:39;;;;;;;21.90;14.02;;;;;;;;;;5068571;28;20031;-75
2023/12/06 07:50:06;;;;;;;23.48;15.07;;;;;;;;;;5068123;28;20050;-75
2023/12/06 07:52:33;;;;;;;22.60;13.07;;;;;;;;;;5067717;28;20021;-75
2023/12/06 07:54:59;;;;;;;20.08;13.05;;;;;;;;;;5058959;28;20005;-75
2023/12/06 07:57:28;;;;;;;19.75;13.55;;;;;;;;;;5062143;28;20350;-75
2023/12/06 07:59:55;;;;;;;22.33;13.45;;;;;;;;;;5067454;28;20081;-75
2023/12/06 08:02:22;;;;;;;17.20;12.45;;;;;;;;;;5054415;28;20700;-75
2023/12/06 08:04:48;;;;;;;19.15;14.07;;;;;;;;;;5054305;28;20021;-75
2023/12/06 08:07:14;;;;;;;15.73;9.45;;;;;;;;;;5048637;28;20420;-75
2023/12/06 08:09:40;;;;;;;17.05;10.20;;;;;;;;;;5052254;28;20025;-75
2023/12/06 08:12:07;;;;;;;14.00;9.40;;;;;;;;;;5050337;28;20012;-75
2023/12/06 08:14:34;;;;;;;19.00;11.02;;;;;;;;;;5049412;28;20025;-75
2023/12/06 08:17:00;;;;;;;17.02;8.65;;;;;;;;;;5049093;28;20025;-75
2023/12/06 08:19:26;;;;;;;18.75;10.52;;;;;;;;;;5050693;28;20025;-75
2023/12/06 08:21:52;;;;;;;14.00;9.98;;;;;;;;;;5050209;28;20094;-75
2023/12/06 08:24:18;;;;;;;14.85;9.73;;;;;;;;;;5052556;28;20486;-75
2023/12/06 08:26:44;;;;;;;12.60;8.27;;;;;;;;;;5053441;28;20011;-75
2023/12/06 08:29:10;;;;;;;14.20;9.60;;;;;;;;;;5056947;28;20020;-75
2023/12/06 08:31:37;;;;;;;13.50;8.55;;;;;;;;;;5053733;28;20497;-75
2023/12/06 08:34:03;;;;;;;14.05;8.77;;;;;;;;;;5051451;28;20041;-75
2023/12/06 08:36:29;;;;;;;14.27;9.02;;;;;;;;;;5053483;28;20579;-75
2023/12/06 08:38:55;;;;;;;13.45;8.95;;;;;;;;;;5048883;28;20048;-77
2023/12/06 08:41:23;;;;;;;13.48;9.02;;;;;;;;;;5060962;28;20413;-76
2023/12/06 08:43:49;;;;;;;11.85;9.25;;;;;;;;;;5049673;28;20021;-77
2023/12/06 08:46:15;;;;;;;14.88;9.40;;;;;;;;;;5050720;28;20032;-77
2023/12/06 08:48:41;;;;;;;15.38;9.75;;;;;;;;;;5044428;28;20037;-77
2023/12/06 08:51:10;;;;;;;13.70;9.35;;;;;;;;;;5054377;28;20222;-77
2023/12/06 08:53:36;;;;;;;13.15;9.07;;;;;;;;;;5053364;28;20111;-76
2023/12/06 08:56:02;;;;;;;12.68;8.90;;;;;;;;;;5059841;28;20103;-75
2023/12/06 08:58:28;;;;;;;15.40;9.52;;;;;;;;;;5050849;28;20023;-78
2023/12/06 09:00:54;;;;;;;11.68;8.50;;;;;;;;;;5052243;28;20021;-78
2023/12/06 09:03:21;;;;;;;15.40;9.38;;;;;;;;;;5050693;28;20021;-78
2023/12/06 09:05:48;;;;;;;13.00;9.43;;;;;;;;;;5055907;28;20021;-78
2023/12/06 09:08:15;;;;;;;15.15;10.13;;;;;;;;;;5056538;28;20032;-78
2023/12/06 09:10:41;;;;;;;12.55;8.02;;;;;;;;;;5058137;28;20428;-77
2023/12/06 09:13:07;;;;;;;12.23;9.10;;;;;;;;;;5054484;28;20033;-78
2023/12/06 09:15:33;;;;;;;14.13;8.98;;;;;;;;;;5052142;28;20407;-78
2023/12/06 09:17:59;;;;;;;10.85;8.50;;;;;;;;;;5047346;28;20036;-78
2023/12/06 09:20:25;;;;;;;11.98;9.05;;;;;;;;;;5055133;28;20025;-79
2023/12/06 09:22:52;;;;;;;11.70;8.38;;;;;;;;;;5055402;28;20013;-76
2023/12/06 09:25:18;;;;;;;10.57;7.78;;;;;;;;;;5054839;28;20103;-80
2023/12/06 09:27:44;;;;;;;13.02;9.00;;;;;;;;;;5052540;28;20396;-80
2023/12/06 09:30:10;;;;;;;12.60;8.30;;;;;;;;;;5054513;28;20025;-79
2023/12/06 09:32:36;;;;;;;10.75;7.85;;;;;;;;;;5054068;28;20068;-80
2023/12/06 09:35:02;;;;;;;11.65;7.82;;;;;;;;;;5053786;28;20029;-79
2023/12/06 09:37:28;;;;;;;8.82;7.15;;;;;;;;;;5049633;28;20013;-80
2023/12/06 09:39:54;;;;;;;9.57;7.72;;;;;;;;;;5048953;28;20481;-80
2023/12/06 09:42:20;;;;;;;12.60;6.80;;;;;;;;;;5044593;28;20031;-80
2023/12/06 09:44:47;;;;;;;11.80;7.85;;;;;;;;;;5054593;28;20462;-80
2023/12/06 09:47:13;;;;;;;9.85;6.95;;;;;;;;;;5048875;28;20116;-79
2023/12/06 09:49:39;;;;;;;11.18;7.53;;;;;;;;;;5047929;28;20035;-78
2023/12/06 09:52:13;;;;;;;10.63;6.65;;;;;;;;;;5048995;28;20053;-79
2023/12/06 09:54:40;;;;;;;9.43;6.90;;;;;;;;;;5055881;28;20078;-79
2023/12/06 09:57:07;;;;;;;9.57;6.68;;;;;;;;;;5060697;28;20082;-79
2023/12/06 09:59:33;;;;;;;11.82;7.25;;;;;;;;;;5051367;28;20020;-79
2023/12/06 10:01:59;;;;;;;9.27;7.13;;;;;;;;;;5058128;28;20089;-79
2023/12/06 10:04:25;;;;;;;9.20;7.57;;;;;;;;;;5046560;28;20034;-79
2023/12/06 10:06:51;;;;;;;11.20;6.65;;;;;;;;;;5054768;28;20489;-79
2023/12/06 10:09:18;;;;;;;9.63;7.47;;;;;;;;;;5048139;28;20021;-79
2023/12/06 10:11:45;;;;;;;8.68;6.40;;;;;;;;;;5048800;28;20045;-80
2023/12/06 10:14:17;;;;;;;7.78;6.03;;;;;;;;;;5037686;28;20013;-79
2023/12/06 10:16:43;;;;;;;8.02;6.35;;;;;;;;;;5049617;28;20052;-79
2023/12/06 10:19:09;;;;;;;6.68;5.95;;;;;;;;;;5046554;28;20059;-79
2023/12/06 10:21:35;;;;;;;8.68;6.47;;;;;;;;;;5047983;28;20021;-79
2023/12/06 10:24:02;;;;;;;7.43;5.43;;;;;;;;;;5048308;28;20009;-79
2023/12/06 10:26:29;;;;;;;7.72;5.43;;;;;;;;;;5052189;28;20035;-79
2023/12/06 10:28:55;;;;;;;8.65;5.45;;;;;;;;;;5052208;28;20043;-79
2023/12/06 10:31:21;;;;;;;7.63;5.65;;;;;;;;;;5052078;28;20035;-79
2023/12/06 10:33:52;;;;;;;7.93;5.80;;;;;;;;;;5053070;28;20052;-80
2023/12/06 10:36:18;;;;;;;7.18;5.85;;;;;;;;;;5050735;28;20029;-79
2023/12/06 10:38:44;;;;;;;8.85;5.82;;;;;;;;;;5051868;28;20024;-78
2023/12/06 10:41:12;;;;;;;7.57;5.82;;;;;;;;;;5054172;28;20044;-77
2023/12/06 10:43:39;;;;;;;7.80;5.95;;;;;;;;;;5052518;28;20028;-78
2023/12/06 10:46:05;;;;;;;9.15;6.07;;;;;;;;;;5051512;28;20028;-78
2023/12/06 10:48:31;;;;;;;6.85;5.60;;;;;;;;;;5053582;28;20067;-77
2023/12/06 10:50:58;;;;;;;9.10;5.53;;;;;;;;;;5053217;28;20021;-77
2023/12/06 10:53:24;;;;;;;8.50;5.50;;;;;;;;;;5053908;28;20443;-76
2023/12/06 10:55:50;;;;;;;9.35;5.63;;;;;;;;;;5052212;28;20480;-76
2023/12/06 10:58:17;;;;;;;7.63;5.47;;;;;;;;;;5053469;28;20029;-76
2023/12/06 11:00:44;;;;;;;8.35;4.53;;;;;;;;;;5051449;28;20040;-76
2023/12/06 11:03:11;;;;;;;8.13;5.53;;;;;;;;;;5052096;28;20024;-76
2023/12/06 11:05:39;;;;;;;8.05;5.80;;;;;;;;;;5050001;28;20473;-76
2023/12/06 11:08:05;;;;;;;9.48;6.25;;;;;;;;;;5054628;28;20025;-76
2023/12/06 11:10:40;;;;;;;9.35;7.00;;;;;;;;;;5052243;28;20033;-76
2023/12/06 11:13:27;;;;;;;8.90;6.50;;;;;;;;;;5050983;28;20472;-76
2023/12/06 11:16:01;;;;;;;9.40;7.13;;;;;;;;;;5047893;28;20166;-76
2023/12/06 11:18:31;;;;;;;12.68;7.68;;;;;;;;;;5044214;28;20021;-76
2023/12/06 11:20:57;;;;;;;10.43;7.57;;;;;;;;;;5050362;28;20084;-76
2023/12/06 11:23:23;;;;;;;10.80;7.95;;;;;;;;;;5052084;28;20020;-76
2023/12/06 11:25:50;;;;;;;14.02;8.10;;;;;;;;;;5053640;28;20070;-76
2023/12/06 11:28:17;;;;;;;13.18;8.02;;;;;;;;;;5046871;28;20017;-76
2023/12/06 11:30:49;;;;;;;11.35;8.70;;;;;;;;;;5049459;28;20032;-77
2023/12/06 11:33:16;;;;;;;11.10;8.23;;;;;;;;;;5044812;28;20085;-77
2023/12/06 11:35:43;;;;;;;12.05;8.07;;;;;;;;;;5048831;28;20025;-79
2023/12/06 11:38:09;;;;;;;14.30;8.65;;;;;;;;;;5043972;28;20101;-78
2023/12/06 11:40:35;;;;;;;12.55;8.80;;;;;;;;;;5039800;28;20026;-77
2023/12/06 11:43:01;;;;;;;13.57;8.95;;;;;;;;;;5048506;28;20241;-76
2023/12/06 11:45:31;;;;;;;10.70;7.60;;;;;;;;;;5041474;28;20025;-80
2023/12/06 11:48:08;;;;;;;12.90;8.50;;;;;;;;;;5042431;28;20032;-78
2023/12/06 11:50:47;;;;;;;10.85;7.97;;;;;;;;;;5046315;28;20029;-78
2023/12/06 11:53:13;;;;;;;10.88;7.65;;;;;;;;;;5049948;28;20536;-78
2023/12/06 11:55:42;;;;;;;10.52;8.02;;;;;;;;;;5051010;28;20028;-78
2023/12/06 11:58:10;;;;;;;10.77;8.43;;;;;;;;;;5053456;28;20025;-78
2023/12/06 12:00:39;;;;;;;12.45;7.80;;;;;;;;;;5052903;28;20021;-78
2023/12/06 12:03:05;;;;;;;12.27;8.10;;;;;;;;;;5054044;28;20028;-78
2023/12/06 12:05:32;;;;;;;10.38;7.85;;;;;;;;;;5054553;28;20115;-78
2023/12/06 12:08:01;;;;;;;11.95;8.05;;;;;;;;;;5052343;28;20090;-78
2023/12/06 12:10:27;;;;;;;10.68;7.70;;;;;;;;;;5063659;28;20051;-78
2023/12/06 12:12:53;;;;;;;11.68;7.60;;;;;;;;;;5055071;28;20055;-78
2023/12/06 12:15:20;;;;;;;13.48;7.90;;;;;;;;;;5056091;28;20563;-78
2023/12/06 12:17:46;;;;;;;9.65;6.80;;;;;;;;;;5053421;28;20028;-78
2023/12/06 12:20:13;;;;;;;9.98;6.25;;;;;;;;;;5054101;28;20024;-78
2023/12/06 12:22:49;;;;;;;8.95;5.70;;;;;;;;;;5055501;28;20059;-78
2023/12/06 12:25:16;;;;;;;8.32;5.93;;;;;;;;;;5052064;28;20025;-78
2023/12/06 12:27:45;;;;;;;9.73;5.88;;;;;;;;;;5053879;28;20092;-78
2023/12/06 12:30:12;;;;;;;7.25;5.53;;;;;;;;;;5059245;28;20032;-77
2023/12/06 12:32:43;;;;;;;8.93;5.13;;;;;;;;;;5045756;28;20044;-76
2023/12/06 12:35:10;;;;;;;8.13;5.22;;;;;;;;;;5059685;28;20023;-77
2023/12/06 12:37:36;;;;;;;8.60;5.30;;;;;;;;;;5048679;28;20020;-76
2023/12/06 12:40:02;;;;;;;8.07;5.47;;;;;;;;;;5046929;28;20024;-77
2023/12/06 12:42:28;;;;;;;9.88;5.78;;;;;;;;;;5049623;28;20017;-77
2023/12/06 12:44:55;;;;;;;8.93;5.55;;;;;;;;;;5051803;28;20017;-75
2023/12/06 12:47:21;;;;;;;8.90;6.00;;;;;;;;;;5054122;28;20027;-75
2023/12/06 12:49:48;;;;;;;7.45;5.15;;;;;;;;;;5053064;28;20021;-74
2023/12/06 12:52:16;;;;;;;7.47;5.93;;;;;;;;;;5052143;28;20033;-75
2023/12/06 12:54:42;;;;;;;8.82;6.25;;;;;;;;;;5052640;28;20021;-75
2023/12/06 12:57:08;;;;;;;7.68;5.82;;;;;;;;;;5031577;28;20025;-75
2023/12/06 12:59:36;;;;;;;7.78;5.75;;;;;;;;;;5047288;28;20367;-75
2023/12/06 13:02:03;;;;;;;6.60;5.03;;;;;;;;;;5048500;28;20044;-75
2023/12/06 13:04:29;;;;;;;9.32;5.20;;;;;;;;;;5054218;28;20017;-75
2023/12/06 13:06:55;;;;;;;8.85;6.30;;;;;;;;;;5053007;28;20585;-76
2023/12/06 13:09:21;;;;;;;10.38;6.90;;;;;;;;;;5053855;28;20029;-75
2023/12/06 13:11:47;;;;;;;8.68;6.10;;;;;;;;;;5052590;28;20285;-75
2023/12/06 13:14:15;;;;;;;8.43;5.60;;;;;;;;;;5052948;28;20047;-75
2023/12/06 13:16:41;;;;;;;7.13;5.00;;;;;;;;;;5049841;28;20029;-75
2023/12/06 13:19:08;;;;;;;6.60;4.80;;;;;;;;;;5041581;28;20032;-75
2023/12/06 13:21:34;;;;;;;8.43;4.68;;;;;;;;;;5048532;28;20025;-76
2023/12/06 13:24:00;;;;;;;6.22;4.68;;;;;;;;;;5058181;28;20103;-76
2023/12/06 13:26:26;;;;;;;6.82;4.50;;;;;;;;;;5050192;28;20021;-76
2023/12/06 13:28:52;;;;;;;6.30;4.60;;;;;;;;;;5054670;28;20028;-76
2023/12/06 13:31:18;;;;;;;5.85;4.88;;;;;;;;;;5044672;28;20495;-76
2023/12/06 13:33:44;;;;;;;6.85;5.00;;;;;;;;;;5045771;28;20523;-76
2023/12/06 13:36:10;;;;;;;6.05;4.93;;;;;;;;;;5049246;28;20009;-75
2023/12/06 13:38:36;;;;;;;5.05;4.50;;;;;;;;;;5050166;28;20031;-76
2023/12/06 13:41:02;;;;;;;7.97;5.57;;;;;;;;;;5049336;28;20468;-75
2023/12/06 13:43:28;;;;;;;8.52;5.00;;;;;;;;;;5052482;28;20493;-75
2023/12/06 13:45:54;;;;;;;8.38;5.80;;;;;;;;;;5047241;28;20013;-76
2023/12/06 13:48:20;;;;;;;6.70;5.32;;;;;;;;;;5053842;28;20017;-76
2023/12/06 13:50:46;;;;;;;6.13;4.32;;;;;;;;;;5061870;28;20478;-76
2023/12/06 13:53:12;;;;;;;5.60;4.55;;;;;;;;;;5048997;28;20021;-75
2023/12/06 13:55:38;;;;;;;5.53;4.18;;;;;;;;;;5057200;28;20376;-75
2023/12/06 13:58:04;;;;;;;6.07;3.92;;;;;;;;;;5048053;28;20031;-75
2023/12/06 14:00:30;;;;;;;5.07;4.10;;;;;;;;;;5055951;28;20025;-75
2023/12/06 14:02:56;;;;;;;6.18;4.57;;;;;;;;;;5058835;28;20093;-76
2023/12/06 14:05:22;;;;;;;6.40;4.28;;;;;;;;;;5055357;28;20012;-75
2023/12/06 14:07:48;;;;;;;6.82;4.93;;;;;;;;;;5047704;28;20024;-76
2023/12/06 14:10:14;;;;;;;8.90;4.72;;;;;;;;;;5047944;28;20106;-76
2023/12/06 14:12:40;;;;;;;9.18;4.95;;;;;;;;;;5039027;28;20097;-76
2023/12/06 14:15:07;;;;;;;6.47;4.82;;;;;;;;;;5047253;28;20116;-76
2023/12/06 14:17:34;;;;;;;8.30;4.95;;;;;;;;;;5048552;28;20013;-75
2023/12/06 14:20:00;;;;;;;6.10;4.40;;;;;;;;;;5049368;28;20047;-76
2023/12/06 14:22:26;;;;;;;6.47;4.90;;;;;;;;;;5046763;28;20079;-75